createdAt,value
2023-05-05T00:00:34.137Z,63.22
2023-05-05T00:03:04.645Z,66.35
2023-05-05T00:05:34.932Z,66.35
2023-05-05T00:08:05.499Z,66.54
2023-05-05T00:10:35.993Z,65.45
2023-05-05T00:13:09.700Z,65.62
2023-05-05T00:15:45.304Z,67.50
2023-05-05T00:18:17.932Z,66.32
2023-05-05T00:20:49.049Z,66.27
2023-05-05T00:23:22.486Z,67.29
2023-05-05T00:25:52.815Z,66.01
2023-05-05T00:28:23.395Z,65.57
2023-05-05T00:30:53.776Z,64.37
2023-05-05T00:33:24.257Z,68.05
2023-05-05T00:35:55.896Z,67.94
2023-05-05T00:38:26.315Z,64.44
2023-05-05T00:40:56.710Z,66.94
2023-05-05T00:43:27.155Z,60.45
2023-05-05T00:46:03.337Z,58.44
2023-05-05T00:48:34.147Z,54.80
2023-05-05T00:51:04.756Z,54.46
2023-05-05T00:53:35.812Z,54.67
2023-05-05T00:56:07.014Z,55.05
2023-05-05T00:58:37.640Z,55.35
2023-05-05T01:01:08.329Z,55.35
2023-05-05T01:03:40.674Z,57.84
2023-05-05T01:06:14.237Z,57.84
2023-05-05T01:09:01.990Z,56.38
2023-05-05T01:11:53.759Z,55.85
2023-05-05T01:14:39.101Z,56.16
2023-05-05T01:17:21.082Z,56.26
2023-05-05T01:20:21.426Z,56.09
2023-05-05T01:23:02.375Z,56.43
2023-05-05T01:25:55.705Z,56.58
2023-05-05T01:28:49.739Z,56.58
2023-05-05T01:31:25.630Z,59.87
2023-05-05T01:34:00.695Z,60.96
2023-05-05T01:36:36.797Z,65.26
2023-05-05T01:39:10.787Z,65.60
2023-05-05T01:41:44.133Z,65.60
2023-05-05T01:44:16.376Z,64.46
2023-05-05T01:46:49.062Z,67.70
2023-05-05T01:49:19.445Z,67.04
2023-05-05T01:51:55.617Z,67.04
2023-05-05T01:54:26.859Z,67.51
2023-05-05T01:56:59.170Z,68.96
2023-05-05T01:59:30.057Z,69.84
2023-05-05T02:02:02.530Z,69.84
2023-05-05T02:04:37.884Z,69.40
2023-05-05T02:07:10.048Z,67.53
2023-05-05T02:09:42.711Z,67.53
2023-05-05T02:12:13.713Z,68.62
2023-05-05T02:14:45.606Z,69.57
2023-05-05T02:17:17.417Z,69.57
2023-05-05T02:19:50.286Z,72.91
2023-05-05T02:22:20.654Z,72.91
2023-05-05T02:24:51.011Z,71.63
2023-05-05T02:27:26.461Z,71.76
2023-05-05T02:29:59.839Z,71.76
2023-05-05T02:32:39.709Z,73.73
2023-05-05T02:35:21.379Z,73.36
2023-05-05T02:38:00.769Z,72.25
2023-05-05T02:40:34.848Z,71.68
2023-05-05T02:43:08.282Z,72.91
2023-05-05T02:45:39.153Z,74.92
2023-05-05T02:48:09.668Z,76.65
2023-05-05T02:50:40.103Z,75.49
2023-05-05T02:53:10.701Z,74.34
2023-05-05T02:56:01.800Z,74.57
2023-05-05T02:58:43.888Z,75.79
2023-05-05T03:01:38.099Z,77.43
2023-05-05T03:04:10.967Z,78.02
2023-05-05T03:06:44.574Z,78.36
2023-05-05T03:09:26.622Z,75.55
2023-05-05T03:12:06.378Z,76.58
2023-05-05T03:14:41.171Z,75.69
2023-05-05T03:17:17.729Z,74.97
2023-05-05T03:19:48.965Z,75.91
2023-05-05T03:22:19.902Z,77.64
2023-05-05T03:24:53.094Z,75.18
2023-05-05T03:27:23.486Z,76.30
2023-05-05T03:29:53.947Z,79.85
2023-05-05T03:32:26.127Z,79.24
2023-05-05T03:34:56.683Z,77.70
2023-05-05T03:37:27.170Z,77.70
2023-05-05T03:39:57.463Z,76.03
2023-05-05T03:42:27.834Z,77.23
2023-05-05T03:44:58.302Z,75.10
2023-05-05T03:47:28.812Z,76.75
2023-05-05T03:49:59.269Z,76.72
2023-05-05T03:52:29.834Z,76.72
2023-05-05T03:55:03.386Z,77.81
2023-05-05T03:57:34.462Z,77.81
2023-05-05T04:00:05.298Z,73.87
2023-05-05T04:02:35.942Z,72.36
2023-05-05T04:05:06.315Z,72.36
2023-05-05T04:07:37.824Z,68.81
2023-05-05T04:10:09.424Z,68.81
2023-05-05T04:12:40.547Z,68.46
2023-05-05T04:15:11.144Z,73.76
2023-05-05T04:17:42.450Z,73.76
2023-05-05T04:20:12.716Z,74.60
2023-05-05T04:22:43.635Z,70.37
2023-05-05T04:25:14.097Z,73.10
2023-05-05T04:27:45.317Z,73.10
2023-05-05T04:30:15.698Z,74.01
2023-05-05T04:32:46.365Z,67.89
2023-05-05T04:35:17.404Z,67.89
2023-05-05T04:37:47.849Z,66.42
2023-05-05T04:40:18.176Z,66.42
2023-05-05T04:42:48.704Z,64.69
2023-05-05T04:45:19.032Z,66.34
2023-05-05T04:47:49.551Z,59.40
2023-05-05T04:50:20.105Z,60.20
2023-05-05T04:52:52.043Z,60.20
2023-05-05T04:55:22.360Z,60.30
2023-05-05T04:57:52.832Z,60.31
2023-05-05T05:00:23.369Z,57.89
2023-05-05T05:02:53.775Z,63.03
2023-05-05T05:05:24.187Z,60.37
2023-05-05T05:07:54.700Z,60.78
2023-05-05T05:10:25.200Z,62.13
2023-05-05T05:12:55.912Z,60.50
2023-05-05T05:15:26.400Z,60.10
2023-05-05T05:17:56.974Z,60.10
2023-05-05T05:20:27.367Z,60.34
2023-05-05T05:23:00.984Z,59.45
2023-05-05T05:25:31.876Z,59.69
2023-05-05T05:28:10.191Z,59.35
2023-05-05T05:30:34.959Z,61.44
2023-05-05T05:33:08.831Z,67.03
2023-05-05T05:35:39.242Z,67.03
2023-05-05T05:38:09.541Z,64.64
2023-05-05T05:40:41.438Z,61.82
2023-05-05T05:43:11.749Z,58.37
2023-05-05T05:45:42.374Z,54.22
2023-05-05T05:48:16.252Z,54.22
2023-05-05T05:50:48.268Z,53.92
2023-05-05T05:53:18.627Z,57.00
2023-05-05T05:55:49.264Z,47.54
2023-05-05T05:58:19.681Z,45.24
2023-05-05T06:01:01.504Z,43.42
2023-05-05T06:03:32.009Z,39.41
2023-05-05T06:06:02.604Z,39.41
2023-05-05T06:08:33.412Z,44.69
2023-05-05T06:11:08.225Z,41.16
2023-05-05T06:13:39.072Z,38.91
2023-05-05T06:16:12.058Z,38.64
2023-05-05T06:18:42.647Z,36.95
2023-05-05T06:21:14.712Z,36.95
2023-05-05T06:23:47.538Z,36.25
2023-05-05T06:26:19.613Z,36.59
2023-05-05T06:28:55.996Z,34.07
2023-05-05T06:31:36.234Z,35.36
2023-05-05T06:34:13.319Z,33.19
2023-05-05T06:36:43.904Z,33.19
2023-05-05T06:39:17.938Z,31.77
2023-05-05T06:41:48.599Z,31.51
2023-05-05T06:44:22.314Z,30.98
2023-05-05T06:46:55.394Z,30.98
2023-05-05T06:49:25.959Z,31.78
2023-05-05T06:51:56.399Z,31.78
2023-05-05T06:54:27.224Z,31.12
2023-05-05T06:57:00.094Z,29.60
2023-05-05T06:59:31.377Z,30.09
2023-05-05T07:02:02.271Z,29.26
2023-05-05T07:04:40.736Z,29.26
2023-05-05T07:07:12.939Z,28.84
2023-05-05T07:09:43.313Z,27.72
2023-05-05T07:12:25.373Z,28.82
2023-05-05T07:14:55.772Z,30.88
2023-05-05T07:17:26.889Z,30.88
2023-05-05T07:20:04.505Z,31.09
2023-05-05T07:22:36.807Z,31.32
2023-05-05T07:25:11.922Z,32.89
2023-05-05T07:27:44.941Z,30.49
2023-05-05T07:30:19.328Z,30.49
2023-05-05T07:32:51.511Z,28.03
2023-05-05T07:35:23.122Z,27.91
2023-05-05T07:37:54.705Z,30.83
2023-05-05T07:40:25.262Z,31.37
2023-05-05T07:42:55.662Z,29.29
2023-05-05T07:45:26.098Z,27.03
2023-05-05T07:47:56.627Z,27.69
2023-05-05T07:50:28.500Z,27.54
2023-05-05T07:53:13.908Z,27.66
2023-05-05T07:55:30.932Z,27.51
2023-05-05T07:58:01.390Z,27.50
2023-05-05T08:00:32.117Z,27.61
2023-05-05T08:03:12.142Z,27.72
2023-05-05T08:05:46.663Z,28.09
2023-05-05T08:08:17.180Z,27.27
2023-05-05T08:10:47.833Z,25.98
2023-05-05T08:13:18.677Z,24.68
2023-05-05T08:15:49.199Z,25.29
2023-05-05T08:18:19.916Z,25.29
2023-05-05T08:20:50.934Z,27.22
2023-05-05T08:23:23.098Z,25.13
2023-05-05T08:25:53.846Z,27.20
2023-05-05T08:28:24.238Z,27.20
2023-05-05T08:30:54.812Z,25.92
2023-05-05T08:33:27.020Z,27.11
2023-05-05T08:35:57.520Z,27.11
2023-05-05T08:38:28.108Z,29.22
2023-05-05T08:41:04.378Z,27.95
2023-05-05T08:43:36.275Z,27.95
2023-05-05T08:46:09.124Z,24.87
2023-05-05T08:48:42.750Z,25.38
2023-05-05T08:51:20.424Z,24.74
2023-05-05T08:54:03.138Z,26.39
2023-05-05T08:56:36.866Z,26.39
2023-05-05T08:59:08.733Z,25.03
2023-05-05T09:01:40.925Z,24.66
2023-05-05T09:04:11.906Z,24.66
2023-05-05T09:06:45.562Z,24.63
2023-05-05T09:09:16.145Z,23.81
2023-05-05T09:11:47.008Z,23.80
2023-05-05T09:14:17.379Z,24.97
2023-05-05T09:16:47.653Z,24.96
2023-05-05T09:19:21.073Z,25.12
2023-05-05T09:21:52.897Z,25.12
2023-05-05T09:24:23.489Z,24.91
2023-05-05T09:26:53.856Z,25.99
2023-05-05T09:29:26.433Z,25.99
2023-05-05T09:32:04.709Z,26.44
2023-05-05T09:34:35.916Z,27.99
2023-05-05T09:37:06.474Z,27.99
2023-05-05T09:39:36.978Z,26.29
2023-05-05T09:42:08.746Z,26.29
2023-05-05T09:44:48.156Z,26.75
2023-05-05T09:47:29.561Z,26.50
2023-05-05T09:50:01.801Z,26.50
2023-05-05T09:52:40.691Z,26.02
2023-05-05T09:55:21.932Z,27.76
2023-05-05T09:57:53.881Z,26.12
2023-05-05T10:00:28.152Z,26.95
2023-05-05T10:03:03.129Z,26.53
2023-05-05T10:05:37.697Z,24.51
2023-05-05T10:08:18.456Z,24.51
2023-05-05T10:10:53.076Z,26.22
2023-05-05T10:13:25.198Z,26.22
2023-05-05T10:15:57.484Z,25.57
2023-05-05T10:18:30.658Z,25.57
2023-05-05T10:21:03.965Z,26.40
2023-05-05T10:23:42.992Z,25.47
2023-05-05T10:26:18.445Z,24.87
2023-05-05T10:28:58.670Z,25.63
2023-05-05T10:31:32.030Z,25.63
2023-05-05T10:34:08.469Z,26.44
2023-05-05T10:36:39.340Z,24.64
2023-05-05T10:39:20.238Z,24.62
2023-05-05T10:41:51.912Z,24.49
2023-05-05T10:44:24.123Z,25.93
2023-05-05T10:46:54.689Z,26.41
2023-05-05T10:49:46.151Z,26.05
2023-05-05T10:52:39.143Z,25.91
2023-05-05T10:55:22.901Z,25.91
2023-05-05T10:57:56.015Z,26.34
2023-05-05T11:00:43.857Z,25.69
2023-05-05T11:03:20.005Z,25.69
2023-05-05T11:06:09.889Z,25.00
2023-05-05T11:08:45.102Z,25.34
2023-05-05T11:11:15.389Z,25.52
2023-05-05T11:13:47.578Z,26.05
2023-05-05T11:16:44.590Z,26.10
2023-05-05T11:19:49.258Z,25.86
2023-05-05T11:22:21.416Z,27.06
2023-05-05T11:24:51.880Z,25.70
2023-05-05T11:27:22.197Z,24.57
2023-05-05T11:30:07.593Z,24.57
2023-05-05T11:32:40.536Z,25.11
2023-05-05T11:35:10.996Z,25.45
2023-05-05T11:37:43.732Z,25.40
2023-05-05T11:40:22.937Z,26.00
2023-05-05T11:43:06.562Z,25.90
2023-05-05T11:45:42.570Z,26.09
2023-05-05T11:48:25.974Z,25.10
2023-05-05T11:50:59.144Z,25.10
2023-05-05T11:53:31.181Z,26.74
2023-05-05T11:56:13.090Z,26.62
2023-05-05T11:58:46.961Z,24.92
2023-05-05T12:01:17.433Z,24.92
2023-05-05T12:03:48.055Z,24.66
2023-05-05T12:09:23.034Z,24.98
2023-05-05T12:11:58.576Z,25.03
2023-05-05T12:14:29.106Z,25.87
2023-05-05T12:17:02.649Z,25.79
2023-05-05T12:19:36.831Z,26.14
2023-05-05T12:22:10.377Z,26.96
2023-05-05T12:24:43.885Z,26.96
2023-05-05T12:27:14.267Z,26.00
2023-05-05T12:29:44.745Z,25.21
2023-05-05T12:32:33.905Z,26.00
2023-05-05T12:35:06.776Z,27.02
2023-05-05T12:37:37.313Z,28.27
2023-05-05T12:40:08.404Z,27.78
2023-05-05T12:42:42.954Z,27.78
2023-05-05T12:45:19.376Z,28.80
2023-05-05T12:47:51.657Z,28.70
2023-05-05T12:50:46.408Z,28.70
2023-05-05T12:53:24.572Z,27.77
2023-05-05T12:55:54.976Z,26.36
2023-05-05T12:58:25.271Z,26.80
2023-05-05T13:01:11.334Z,26.80
2023-05-05T13:03:41.799Z,28.22
2023-05-05T13:06:23.379Z,28.72
2023-05-05T13:08:59.490Z,29.79
2023-05-05T13:11:29.938Z,30.49
2023-05-05T13:14:02.118Z,30.40
2023-05-05T13:16:32.951Z,30.68
2023-05-05T13:19:03.537Z,30.68
2023-05-05T13:21:34.079Z,31.10
2023-05-05T13:24:18.938Z,29.48
2023-05-05T13:26:42.020Z,29.83
2023-05-05T13:29:19.442Z,29.83
2023-05-05T13:31:52.741Z,29.69
2023-05-05T13:34:26.404Z,29.69
2023-05-05T13:36:57.142Z,28.68
2023-05-05T13:39:27.694Z,27.95
2023-05-05T13:41:58.420Z,27.95
2023-05-05T13:44:33.592Z,27.08
2023-05-05T13:47:07.016Z,26.81
2023-05-05T13:49:37.290Z,27.02
2023-05-05T13:52:07.567Z,27.37
2023-05-05T13:54:38.502Z,28.50
2023-05-05T13:57:08.995Z,28.50
2023-05-05T13:59:39.371Z,27.97
2023-05-05T14:02:13.970Z,27.26
2023-05-05T14:04:44.724Z,27.22
2023-05-05T14:07:15.774Z,27.00
2023-05-05T14:09:46.031Z,27.42
2023-05-05T14:12:18.759Z,27.31
2023-05-05T14:14:52.192Z,27.59
2023-05-05T14:17:32.216Z,27.59
2023-05-05T14:20:05.308Z,28.48
2023-05-05T14:22:36.947Z,28.48
2023-05-05T14:25:09.807Z,29.28
2023-05-05T14:27:40.825Z,28.82
2023-05-05T14:30:11.630Z,29.40
2023-05-05T14:32:43.626Z,30.07
2023-05-05T14:35:14.164Z,30.72
2023-05-05T14:37:53.067Z,30.63
2023-05-05T14:40:26.074Z,30.63
2023-05-05T14:42:58.374Z,28.98
2023-05-05T14:45:29.008Z,28.98
2023-05-05T14:47:59.584Z,29.19
2023-05-05T14:50:33.224Z,29.96
2023-05-05T14:53:03.737Z,29.96
2023-05-05T14:55:39.737Z,30.63
2023-05-05T14:58:13.957Z,31.44
2023-05-05T15:00:49.687Z,31.44
2023-05-05T15:03:20.666Z,30.15
2023-05-05T15:05:54.165Z,30.89
2023-05-05T15:08:26.390Z,30.89
2023-05-05T15:10:56.872Z,30.82
2023-05-05T15:13:30.485Z,30.82
2023-05-05T15:16:08.161Z,30.36
2023-05-05T15:18:39.454Z,30.36
2023-05-05T15:21:15.603Z,31.10
2023-05-05T15:23:46.141Z,31.01
2023-05-05T15:26:19.492Z,30.80
2023-05-05T15:28:53.921Z,30.80
2023-05-05T15:31:24.617Z,31.02
2023-05-05T15:37:08.416Z,30.77
2023-05-05T15:39:40.543Z,31.16
2023-05-05T15:42:14.946Z,32.64
2023-05-05T15:44:49.112Z,32.64
2023-05-05T15:47:33.800Z,31.78
2023-05-05T15:50:10.511Z,31.62
2023-05-05T15:52:48.143Z,31.61
2023-05-05T15:55:31.580Z,31.29
2023-05-05T15:58:05.114Z,31.29
2023-05-05T16:00:37.558Z,31.45
2023-05-05T16:03:19.901Z,31.72
2023-05-05T16:05:51.861Z,31.72
2023-05-05T16:08:22.758Z,33.89
2023-05-05T16:10:56.724Z,37.12
2023-05-05T16:13:43.237Z,34.35
2023-05-05T16:16:19.639Z,35.54
2023-05-05T16:18:50.134Z,38.53
2023-05-05T16:21:22.676Z,38.53
2023-05-05T16:23:59.209Z,38.50
2023-05-05T16:26:31.402Z,40.86
2023-05-05T16:29:07.613Z,41.84
2023-05-05T16:31:39.697Z,40.93
2023-05-05T16:34:12.176Z,41.54
2023-05-05T16:36:50.588Z,40.30
2023-05-05T16:39:25.621Z,40.30
2023-05-05T16:41:56.207Z,41.75
2023-05-05T16:44:35.624Z,41.63
2023-05-05T16:47:08.212Z,41.60
2023-05-05T16:49:38.854Z,41.60
2023-05-05T16:52:09.818Z,41.42
2023-05-05T16:54:40.415Z,44.43
2023-05-05T16:57:12.391Z,46.36
2023-05-05T16:59:44.408Z,43.91
2023-05-05T17:02:16.407Z,43.10
2023-05-05T17:04:47.646Z,43.23
2023-05-05T17:07:21.267Z,42.75
2023-05-05T17:10:03.830Z,43.62
2023-05-05T17:12:38.396Z,43.62
2023-05-05T17:15:09.971Z,42.78
2023-05-05T17:17:44.916Z,42.78
2023-05-05T17:20:17.258Z,41.53
2023-05-05T17:22:49.295Z,42.07
2023-05-05T17:25:23.543Z,43.40
2023-05-05T17:27:56.369Z,43.40
2023-05-05T17:30:28.714Z,43.54
2023-05-05T17:32:59.391Z,43.38
2023-05-05T17:35:30.185Z,43.51
2023-05-05T17:38:01.020Z,43.51
2023-05-05T17:40:31.617Z,44.09
2023-05-05T17:43:10.236Z,45.75
2023-05-05T17:45:48.521Z,48.26
2023-05-05T17:48:19.644Z,47.07
2023-05-05T17:50:50.456Z,47.07
2023-05-05T17:53:21.054Z,47.54
2023-05-05T17:55:51.534Z,47.07
2023-05-05T17:58:22.102Z,47.07
2023-05-05T18:00:52.715Z,47.45
2023-05-05T18:03:23.220Z,48.73
2023-05-05T18:05:54.050Z,48.73
2023-05-05T18:08:24.552Z,49.80
2023-05-05T18:10:55.230Z,49.08
2023-05-05T18:13:25.725Z,49.08
2023-05-05T18:15:58.261Z,48.23
2023-05-05T18:18:29.626Z,49.44
2023-05-05T18:21:00.158Z,49.35
2023-05-05T18:23:32.101Z,48.89
2023-05-05T18:26:08.394Z,51.21
2023-05-05T18:28:41.066Z,49.95
2023-05-05T18:31:29.110Z,49.95
2023-05-05T18:33:59.648Z,52.09
2023-05-05T18:36:30.010Z,50.22
2023-05-05T18:39:00.597Z,51.33
2023-05-05T18:41:31.444Z,51.83
2023-05-05T18:44:02.226Z,52.05
2023-05-05T18:46:34.338Z,52.91
2023-05-05T18:49:07.628Z,51.84
2023-05-05T18:51:38.440Z,52.43
2023-05-05T18:54:09.049Z,51.55
2023-05-05T18:56:39.684Z,51.42
2023-05-05T18:59:11.739Z,51.42
2023-05-05T19:01:44.660Z,51.42
2023-05-05T19:04:29.422Z,51.42
2023-05-05T19:06:47.903Z,53.30
2023-05-05T19:09:21.745Z,53.30
2023-05-05T19:11:55.375Z,53.55
2023-05-05T19:14:30.286Z,54.04
2023-05-05T19:17:05.441Z,54.04
2023-05-05T19:19:42.980Z,55.51
2023-05-05T19:22:13.091Z,55.18
2023-05-05T19:24:45.392Z,55.18
2023-05-05T19:27:17.283Z,55.81
2023-05-05T19:29:48.178Z,54.32
2023-05-05T19:32:22.991Z,54.32
2023-05-05T19:34:58.368Z,56.18
2023-05-05T19:37:39.791Z,56.04
2023-05-05T19:40:13.924Z,55.80
2023-05-05T19:42:46.491Z,55.71
2023-05-05T19:45:18.535Z,55.71
2023-05-05T19:47:51.460Z,55.46
2023-05-05T19:50:36.568Z,56.01
2023-05-05T19:53:07.092Z,55.32
2023-05-05T19:55:41.715Z,55.32
2023-05-05T19:58:14.332Z,57.23
2023-05-05T20:03:46.617Z,57.37
2023-05-05T20:06:19.408Z,56.02
2023-05-05T20:08:51.970Z,56.02
2023-05-05T20:11:23.322Z,56.34
2023-05-05T20:14:00.147Z,57.81
2023-05-05T20:16:29.335Z,59.79
2023-05-05T20:19:12.758Z,57.32
2023-05-05T20:21:36.998Z,57.32
2023-05-05T20:24:13.090Z,58.20
2023-05-05T20:26:40.450Z,58.58
2023-05-05T20:29:13.699Z,58.58
2023-05-05T20:31:56.120Z,60.59
2023-05-05T20:34:30.213Z,59.15
2023-05-05T20:40:16.137Z,59.30
2023-05-05T20:42:46.812Z,60.72
2023-05-05T20:45:17.511Z,60.72
2023-05-05T20:48:10.756Z,62.89
2023-05-05T20:50:41.415Z,62.18
2023-05-05T20:53:13.428Z,62.18
2023-05-05T20:55:57.651Z,62.41
2023-05-05T20:58:28.163Z,63.19
2023-05-05T21:01:02.700Z,63.19
2023-05-05T21:03:35.735Z,62.52
2023-05-05T21:06:55.314Z,63.48
2023-05-05T21:11:45.665Z,63.87
2023-05-05T21:14:16.669Z,64.54
2023-05-05T21:17:05.374Z,63.72
2023-05-05T21:19:44.401Z,64.44
2023-05-05T21:22:14.740Z,64.53
2023-05-05T21:24:45.593Z,64.53
2023-05-05T21:27:17.332Z,66.20
2023-05-05T21:29:53.318Z,65.99
2023-05-05T21:32:27.010Z,65.99
2023-05-05T21:34:57.273Z,67.92
2023-05-05T21:37:28.885Z,67.92
2023-05-05T21:39:59.344Z,68.00
2023-05-05T21:42:31.539Z,67.28
2023-05-05T21:45:05.053Z,67.28
2023-05-05T21:47:38.322Z,69.67
2023-05-05T21:50:12.326Z,69.67
2023-05-05T21:52:43.121Z,69.25
2023-05-05T21:55:13.515Z,70.15
2023-05-05T21:57:49.449Z,70.46
2023-05-05T22:00:21.746Z,70.82
2023-05-05T22:02:52.308Z,70.82
2023-05-05T22:05:26.033Z,71.16
2023-05-05T22:07:56.548Z,71.70
2023-05-05T22:10:27.045Z,71.34
2023-05-05T22:12:57.500Z,72.93
2023-05-05T22:15:32.808Z,72.77
2023-05-05T22:17:59.936Z,72.19
2023-05-05T22:20:31.244Z,72.19
2023-05-05T22:23:01.900Z,72.02
2023-05-05T22:25:32.444Z,73.39
2023-05-05T22:28:02.957Z,73.39
2023-05-05T22:30:33.755Z,71.60
2023-05-05T22:33:04.368Z,71.60
2023-05-05T22:35:35.660Z,72.64
2023-05-05T22:38:06.122Z,73.75
2023-05-05T22:40:39.609Z,71.52
2023-05-05T22:43:10.163Z,72.73
2023-05-05T22:45:41.401Z,72.33
2023-05-05T22:48:17.874Z,72.33
2023-05-05T22:50:48.886Z,73.57
2023-05-05T22:53:19.397Z,73.86
2023-05-05T22:55:49.807Z,73.75
2023-05-05T22:58:20.473Z,75.27
2023-05-05T23:00:50.726Z,75.27
2023-05-05T23:03:21.386Z,74.14
2023-05-05T23:05:51.777Z,73.11
2023-05-05T23:08:22.387Z,73.19
2023-05-05T23:10:53.282Z,73.32
2023-05-05T23:13:23.775Z,73.60
2023-05-05T23:15:54.206Z,72.50
2023-05-05T23:18:24.703Z,72.50
2023-05-05T23:20:55.180Z,71.91
2023-05-05T23:23:25.746Z,72.90
2023-05-05T23:25:57.486Z,72.90
2023-05-05T23:28:37.805Z,72.09
2023-05-05T23:31:04.851Z,73.42
2023-05-05T23:33:39.985Z,73.42
2023-05-05T23:36:17.102Z,73.43
2023-05-05T23:38:48.695Z,72.23
2023-05-05T23:41:19.049Z,71.57
2023-05-05T23:43:49.609Z,71.57
2023-05-05T23:46:19.985Z,72.58
2023-05-05T23:48:51.253Z,72.58
2023-05-05T23:51:21.650Z,72.87
2023-05-05T23:53:52.561Z,73.23
2023-05-05T23:56:23.358Z,73.62
2023-05-05T23:58:54.101Z,73.62
